Latest Weather Observations for Outer Harbor (Black Pole)

IDS60801

Issued at 3:01 pm CST Tuesday 1 September 2015 (issued every 30 minutes, with the page automatically refreshed every 10 minutes)

About weather observations | Map of weather stations | Latest weather observations for SA | Other Formats
Station Details ID: 023052 Name: BLACK POLE Lat: -34.73 Lon: 138.47 Height: 8.0 m
Data from the previous 72 hours. | See also: Recent months for locations in South Australia
Date/Time
CST
Temp
°C
App
Temp
°C
Dew
Point
Rel
Hum
%
Delta-T
°C
Wind Press
QNH
hPa
Press
MSL
hPa
Rain
since 9 am
mm
Dir
 
Spd
km/h
Gust
km/h
Spd
kts
Gust
kts
01/03:00pm - - - - - N 20 26 11 14 - - -
01/02:30pm - - - - - N 15 20 8 11 - - -
01/02:00pm - - - - - N 22 26 12 14 - - -
01/01:30pm - - - - - NNW 26 35 14 19 - - -
01/01:00pm - - - - - NNW 33 41 18 22 - - -
01/12:30pm - - - - - N 28 37 15 20 - - -
01/12:00pm - - - - - N 20 30 11 16 - - -
01/11:30am - - - - - N 26 33 14 18 - - -
01/11:00am - - - - - N 17 20 9 11 - - -
01/10:30am - - - - - NNE 13 15 7 8 - - -
01/10:00am - - - - - NNE 19 22 10 12 - - -
01/09:30am - - - - - NNE 19 24 10 13 - - -
01/09:00am - - - - - NNE 19 22 10 12 - - -
01/08:30am - - - - - NE 19 22 10 12 - - -
01/08:00am - - - - - NE 20 22 11 12 - - -
01/07:30am - - - - - NE 17 22 9 12 - - -
01/07:00am - - - - - NE 17 20 9 11 - - -
01/06:30am - - - - - NNE 15 19 8 10 - - -
01/06:00am - - - - - NE 15 17 8 9 - - -
01/05:30am - - - - - NE 17 20 9 11 - - -
01/05:00am - - - - - NNE 22 26 12 14 - - -
01/04:30am - - - - - NNE 19 24 10 13 - - -
01/04:00am - - - - - NE 22 24 12 13 - - -
01/03:30am - - - - - NE 20 22 11 12 - - -
01/03:00am - - - - - NNE 20 26 11 14 - - -
01/02:30am - - - - - NNE 20 26 11 14 - - -
01/02:00am - - - - - NE 22 28 12 15 - - -
01/01:30am - - - - - NE 20 24 11 13 - - -
01/01:00am - - - - - NE 20 24 11 13 - - -
01/12:30am - - - - - NE 20 24 11 13 - - -
01/12:00am - - - - - NE 22 26 12 14 - - -
 
Date/Time
CST
Temp
°C
App
Temp
°C
Dew
Point
Rel
Hum
%
Delta-T
°C
Wind Press
QNH
hPa
Press
MSL
hPa
Rain
since 9 am
mm
Dir
 
Spd
km/h
Gust
km/h
Spd
kts
Gust
kts
31/11:30pm - - - - - NE 20 24 11 13 - - -
31/11:00pm - - - - - NNE 20 24 11 13 - - -
31/10:30pm - - - - - NE 15 19 8 10 - - -
31/10:00pm - - - - - NE 15 17 8 9 - - -
31/09:30pm - - - - - NE 15 17 8 9 - - -
31/09:00pm - - - - - ENE 15 17 8 9 - - -
31/08:30pm - - - - - ENE 15 17 8 9 - - -
31/08:00pm - - - - - E 11 11 6 6 - - -
31/07:30pm - - - - - E 6 7 3 4 - - -
31/07:00pm - - - - - ENE 6 6 3 3 - - -
31/06:30pm - - - - - ENE 13 13 7 7 - - -
31/06:00pm - - - - - ENE 7 9 4 5 - - -
31/05:30pm - - - - - E 6 7 3 4 - - -
31/05:00pm - - - - - SE 7 9 4 5 - - -
31/04:30pm - - - - - SSE 9 9 5 5 - - -
31/04:00pm - - - - - S 9 9 5 5 - - -
31/03:30pm - - - - - S 9 9 5 5 - - -
31/03:00pm - - - - - SSW 9 11 5 6 - - -
31/02:30pm - - - - - SW 9 9 5 5 - - -
31/02:00pm - - - - - SSW 9 9 5 5 - - -
31/01:30pm - - - - - S 7 9 4 5 - - -
31/01:00pm - - - - - SW 9 11 5 6 - - -
31/12:30pm - - - - - SSW 7 7 4 4 - - -
31/12:00pm - - - - - S 6 7 3 4 - - -
31/11:30am - - - - - WSW 4 6 2 3 - - -
31/11:00am - - - - - WNW 6 7 3 4 - - -
31/10:30am - - - - - NNW 11 13 6 7 - - -
31/10:00am - - - - - N 11 15 6 8 - - -
31/09:30am - - - - - N 11 17 6 9 - - -
31/09:00am - - - - - NNE 15 17 8 9 - - -
31/08:30am - - - - - NNE 13 15 7 8 - - -
31/08:00am - - - - - NE 13 17 7 9 - - -
31/07:30am - - - - - NNE 17 20 9 11 - - -
31/07:00am - - - - - NNE 17 20 9 11 - - -
31/06:30am - - - - - NNE 17 22 9 12 - - -
31/06:00am - - - - - NNE 19 22 10 12 - - -
31/05:30am - - - - - NNE 19 22 10 12 - - -
31/05:00am - - - - - NNE 19 22 10 12 - - -
31/04:30am - - - - - NNE 19 22 10 12 - - -
31/04:00am - - - - - NNE 19 22 10 12 - - -
31/03:30am - - - - - NNE 20 26 11 14 - - -
31/03:00am - - - - - NNE 19 24 10 13 - - -
31/02:30am - - - - - NNE 17 20 9 11 - - -
31/02:00am - - - - - NNE 15 19 8 10 - - -
31/01:30am - - - - - NNE 15 17 8 9 - - -
31/01:00am - - - - - NE 9 13 5 7 - - -
31/12:30am - - - - - NE 9 11 5 6 - - -
31/12:00am - - - - - ENE 11 13 6 7 - - -
 
Date/Time
CST
Temp
°C
App
Temp
°C
Dew
Point
Rel
Hum
%
Delta-T
°C
Wind Press
QNH
hPa
Press
MSL
hPa
Rain
since 9 am
mm
Dir
 
Spd
km/h
Gust
km/h
Spd
kts
Gust
kts
30/11:30pm - - - - - ENE 11 13 6 7 - - -
30/11:00pm - - - - - NE 13 17 7 9 - - -
30/10:30pm - - - - - NE 9 13 5 7 - - -
30/10:00pm - - - - - ENE 15 19 8 10 - - -
30/09:30pm - - - - - E 13 15 7 8 - - -
30/09:00pm - - - - - ESE 9 13 5 7 - - -
30/08:30pm - - - - - SE 9 11 5 6 - - -
30/08:00pm - - - - - SE 11 13 6 7 - - -
30/07:30pm - - - - - ESE 11 13 6 7 - - -
30/07:00pm - - - - - SE 13 15 7 8 - - -
30/06:30pm - - - - - SSE 13 15 7 8 - - -
30/06:00pm - - - - - SSE 17 20 9 11 - - -
30/05:30pm - - - - - S 19 22 10 12 - - -
30/05:00pm - - - - - S 19 22 10 12 - - -
30/04:30pm - - - - - SSW 15 19 8 10 - - -
30/04:00pm - - - - - WSW 13 15 7 8 - - -
30/03:30pm - - - - - W 13 15 7 8 - - -
30/03:00pm - - - - - WSW 13 15 7 8 - - -
30/02:30pm - - - - - SW 13 15 7 8 - - -
30/02:00pm - - - - - SSW 11 13 6 7 - - -
30/01:30pm - - - - - SW 9 11 5 6 - - -
30/01:00pm - - - - - ESE 6 7 3 4 - - -
30/12:30pm - - - - - NE 7 11 4 6 - - -
30/12:00pm - - - - - NNE 9 13 5 7 - - -
30/11:30am - - - - - NNE 15 20 8 11 - - -
30/11:00am - - - - - NNE 20 24 11 13 - - -
30/10:30am - - - - - NE 19 24 10 13 - - -
30/10:00am - - - - - NE 19 22 10 12 - - -
30/09:30am - - - - - NE 22 26 12 14 - - -
30/09:00am - - - - - NE 17 24 9 13 - - -
30/08:30am - - - - - NE 15 17 8 9 - - -
30/08:00am - - - - - NNE 13 15 7 8 - - -
30/07:30am - - - - - NE 15 19 8 10 - - -
30/07:00am - - - - - NE 15 17 8 9 - - -
30/06:30am - - - - - NE 13 17 7 9 - - -
30/06:00am - - - - - NNE 13 15 7 8 - - -
30/05:30am - - - - - NE 15 17 8 9 - - -
30/05:00am - - - - - ENE 15 19 8 10 - - -
30/04:30am - - - - - ENE 13 17 7 9 - - -
30/04:00am - - - - - E 17 19 9 10 - - -
30/03:30am - - - - - E 19 24 10 13 - - -
30/03:00am - - - - - E 20 24 11 13 - - -
30/02:30am - - - - - E 19 22 10 12 - - -
30/02:00am - - - - - E 13 17 7 9 - - -
30/01:30am - - - - - ENE 13 17 7 9 - - -
30/01:00am - - - - - ENE 13 15 7 8 - - -
30/12:30am - - - - - ENE 13 17 7 9 - - -
30/12:00am - - - - - E 15 17 8 9 - - -
 
Date/Time
CST
Temp
°C
App
Temp
°C
Dew
Point
Rel
Hum
%
Delta-T
°C
Wind Press
QNH
hPa
Press
MSL
hPa
Rain
since 9 am
mm
Dir
 
Spd
km/h
Gust
km/h
Spd
kts
Gust
kts
29/11:30pm - - - - - E 13 17 7 9 - - -
29/11:00pm - - - - - E 9 11 5 6 - - -
29/10:30pm - - - - - ESE 13 17 7 9 - - -
29/10:00pm - - - - - E 17 19 9 10 - - -
29/09:30pm - - - - - ESE 17 20 9 11 - - -
29/09:00pm - - - - - SE 15 17 8 9 - - -
29/08:30pm - - - - - ESE 15 17 8 9 - - -
29/08:00pm - - - - - ESE 17 20 9 11 - - -
29/07:30pm - - - - - E 20 22 11 12 - - -
29/07:00pm - - - - - E 13 15 7 8 - - -
29/06:30pm - - - - - E 15 19 8 10 - - -
29/06:00pm - - - - - ESE 17 20 9 11 - - -
29/05:30pm - - - - - SSW 19 22 10 12 - - -
29/05:00pm - - - - - SSW 22 26 12 14 - - -
29/04:30pm - - - - - SSW 22 26 12 14 - - -
29/04:00pm - - - - - SSW 20 24 11 13 - - -
29/03:30pm - - - - - SSW 19 22 10 12 - - -

Other Formats:

Comma delimited format used in spreadsheet applications
http://www.bom.gov.au/fwo/IDS60801/IDS60801.95675.axf

JavaScript Object Notation format (JSON) in row-major order
http://www.bom.gov.au/fwo/IDS60801/IDS60801.95675.json